This is the latest recevied weather packets stored in our database for station/object K2CCS. If no packets are shown the sender has not sent any weather packets the latest 10 day(s).
| Time | Temp. | Humidity | Pressure | Rain* | Wind** | Luminosity | Snow |
|---|---|---|---|---|---|---|---|
| 1777925710 | 22.78° C | 36% | 1009.7 hPa | 0 mm | - | 490 W/m² | - |
| 1777925408 | 22.78° C | 37% | 1009.8 hPa | 0 mm | - | 508 W/m² | - |
| 1777925104 | 22.78° C | 35% | 1009.9 hPa | 0 mm | - | 530 W/m² | - |
| 1777924801 | 22.78° C | 37% | 1010 hPa | 0 mm | - | 481 W/m² | - |
| 1777924497 | 22.78° C | 37% | 1009.9 hPa | 0 mm | - | 561 W/m² | - |
| 1777924194 | 22.78° C | 38% | 1009.9 hPa | 0 mm | - | 521 W/m² | - |
| 1777923890 | 21.67° C | 38% | 1010.1 hPa | 0 mm | - | 561 W/m² | - |
| 1777923586 | 22.22° C | 38% | 1009.9 hPa | 0 mm | - | 348 W/m² | - |
| 1777923283 | 22.22° C | 38% | 1010.4 hPa | 0 mm | - | 562 W/m² | - |
| 1777922982 | 22.22° C | 38% | 1010 hPa | 0 mm | - | 139 W/m² | - |
| 1777922679 | 21.67° C | 39% | 1010.5 hPa | 0 mm | - | 599 W/m² | - |
| 1777922378 | 22.22° C | 38% | 1010.3 hPa | 0 mm | - | 632 W/m² | - |
| 1777922075 | 22.22° C | 39% | 1010.4 hPa | 0 mm | - | 441 W/m² | - |
| 1777921770 | 21.67° C | 40% | 1010.5 hPa | 0 mm | - | 183 W/m² | - |
| 1777921466 | 21.67° C | 39% | 1010.5 hPa | 0 mm | - | 481 W/m² | - |
| 1777921163 | 21.11° C | 39% | 1010.5 hPa | 0 mm | - | 311 W/m² | - |
| 1777920860 | 21.67° C | 39% | 1010.4 hPa | 0 mm | - | 640 W/m² | - |
| 1777920556 | 21.67° C | 39% | 1010.6 hPa | 0 mm | - | 196 W/m² | - |
| 1777920252 | 21.11° C | 39% | 1010.5 hPa | 0 mm | - | 642 W/m² | - |
| 1777919948 | 21.11° C | 41% | 1010.7 hPa | 0 mm | - | 733 W/m² | - |
| 1777919645 | 21.67° C | 39% | 1010.5 hPa | 0 mm | - | 180 W/m² | - |
| 1777919343 | 21.67° C | 40% | 1010.6 hPa | 0 mm | - | 424 W/m² | - |
| 1777919040 | 21.67° C | 39% | 1010.5 hPa | 0 mm | - | 183 W/m² | - |
| 1777918736 | 21.11° C | 42% | 1010.9 hPa | 0 mm | - | 746 W/m² | - |
| 1777918434 | 20.56° C | 42% | 1010.7 hPa | 0 mm | - | 476 W/m² | - |
* Rain latest hour (hover to see other rain measurements)
** Current wind speed in m/s (hover to see current wind gust speed)